createdAt,value
2022-09-28T00:01:16.347Z,65.58
2022-09-28T00:03:45.608Z,65.46
2022-09-28T00:06:16.266Z,65.39
2022-09-28T00:08:44.857Z,65.42
2022-09-28T00:11:19.040Z,65.45
2022-09-28T00:13:53.098Z,65.51
2022-09-28T00:16:24.326Z,65.57
2022-09-28T00:18:54.281Z,65.56
2022-09-28T00:21:31.227Z,65.57
2022-09-28T00:24:22.933Z,65.60
2022-09-28T00:26:55.571Z,65.70
2022-09-28T00:29:35.942Z,65.77
2022-09-28T00:32:07.794Z,65.73
2022-09-28T00:34:41.383Z,65.66
2022-09-28T00:37:10.225Z,65.64
2022-09-28T00:39:41.340Z,65.63
2022-09-28T00:42:24.980Z,65.68
2022-09-28T00:44:56.936Z,65.68
2022-09-28T00:47:43.328Z,65.73
2022-09-28T00:50:21.645Z,65.81
2022-09-28T00:52:57.831Z,65.73
2022-09-28T00:55:35.378Z,65.76
2022-09-28T00:58:07.017Z,65.71
2022-09-28T01:00:35.474Z,65.82
2022-09-28T01:03:04.097Z,65.77
2022-09-28T01:05:33.999Z,65.75
2022-09-28T01:08:02.986Z,65.85
2022-09-28T01:10:31.690Z,65.82
2022-09-28T01:12:59.719Z,65.85
2022-09-28T01:15:33.353Z,65.91
2022-09-28T01:18:25.646Z,65.80
2022-09-28T01:21:16.865Z,65.72
2022-09-28T01:24:00.427Z,65.74
2022-09-28T01:26:46.110Z,65.69
2022-09-28T01:29:46.225Z,65.72
2022-09-28T01:32:33.683Z,65.85
2022-09-28T01:35:28.790Z,65.95
2022-09-28T01:38:10.495Z,65.98
2022-09-28T01:40:39.520Z,65.97
2022-09-28T01:43:27.325Z,65.99
2022-09-28T01:46:14.671Z,66.05
2022-09-28T01:48:51.629Z,66.01
2022-09-28T01:51:29.357Z,66.07
2022-09-28T01:54:03.777Z,66.01
2022-09-28T01:56:37.420Z,66.05
2022-09-28T01:59:23.438Z,65.92
2022-09-28T02:02:15.748Z,65.99
2022-09-28T02:04:50.848Z,65.96
2022-09-28T02:07:27.173Z,66.00
2022-09-28T02:10:00.810Z,66.04
2022-09-28T02:12:41.642Z,66.14
2022-09-28T02:15:17.598Z,66.01
2022-09-28T02:17:46.620Z,66.00
2022-09-28T02:20:16.199Z,66.02
2022-09-28T02:22:50.133Z,66.06
2022-09-28T02:25:31.450Z,66.15
2022-09-28T02:28:04.372Z,66.09
2022-09-28T02:30:36.684Z,66.09
2022-09-28T02:33:14.287Z,66.07
2022-09-28T02:35:43.266Z,66.14
2022-09-28T02:38:12.704Z,66.13
2022-09-28T02:40:46.749Z,66.16
2022-09-28T02:43:40.741Z,66.17
2022-09-28T02:46:32.910Z,66.12
2022-09-28T02:49:21.770Z,66.12
2022-09-28T02:52:14.215Z,66.15
2022-09-28T02:55:09.920Z,66.15
2022-09-28T02:57:45.835Z,66.15
2022-09-28T03:00:24.345Z,66.18
2022-09-28T03:03:25.801Z,66.19
2022-09-28T03:06:13.684Z,66.17
2022-09-28T03:09:00.272Z,66.20
2022-09-28T03:11:54.639Z,66.16
2022-09-28T03:14:23.101Z,66.16
2022-09-28T03:16:54.296Z,66.20
2022-09-28T03:19:27.595Z,66.15
2022-09-28T03:21:55.794Z,66.20
2022-09-28T03:24:23.632Z,66.18
2022-09-28T03:26:51.973Z,66.29
2022-09-28T03:29:22.468Z,66.07
2022-09-28T03:31:55.177Z,66.08
2022-09-28T03:34:23.213Z,66.11
2022-09-28T03:36:51.075Z,66.10
2022-09-28T03:39:19.107Z,66.11
2022-09-28T03:41:46.913Z,66.10
2022-09-28T03:44:14.940Z,66.11
2022-09-28T03:46:42.808Z,66.12
2022-09-28T03:49:10.812Z,66.16
2022-09-28T03:51:38.689Z,66.14
2022-09-28T03:54:06.883Z,66.24
2022-09-28T03:56:35.415Z,66.17
2022-09-28T03:59:04.624Z,66.26
2022-09-28T04:01:33.438Z,66.34
2022-09-28T04:04:19.226Z,66.30
2022-09-28T04:06:53.688Z,66.16
2022-09-28T04:09:21.497Z,66.14
2022-09-28T04:12:03.452Z,66.19
2022-09-28T04:14:33.898Z,66.26
2022-09-28T04:17:02.219Z,66.34
2022-09-28T04:19:32.880Z,66.41
2022-09-28T04:22:02.217Z,66.45
2022-09-28T04:24:30.856Z,66.44
2022-09-28T04:27:18.599Z,66.35
2022-09-28T04:29:46.389Z,66.41
2022-09-28T04:32:15.486Z,66.33
2022-09-28T04:34:44.457Z,66.30
2022-09-28T04:37:12.731Z,66.40
2022-09-28T04:39:44.035Z,66.43
2022-09-28T04:42:16.114Z,66.51
2022-09-28T04:44:44.123Z,66.58
2022-09-28T04:47:13.249Z,66.54
2022-09-28T04:50:04.176Z,66.50
2022-09-28T04:52:37.904Z,66.56
2022-09-28T04:55:06.719Z,66.54
2022-09-28T04:57:35.745Z,66.47
2022-09-28T05:00:05.495Z,66.44
2022-09-28T05:02:35.993Z,66.41
2022-09-28T05:05:44.834Z,66.31
2022-09-28T05:08:38.149Z,66.39
2022-09-28T05:11:11.382Z,66.47
2022-09-28T05:13:41.978Z,66.42
2022-09-28T05:16:12.299Z,66.43
2022-09-28T05:19:00.386Z,66.55
2022-09-28T05:21:29.502Z,66.53
2022-09-28T05:23:58.507Z,66.45
2022-09-28T05:26:28.310Z,66.64
2022-09-28T05:28:56.811Z,66.62
2022-09-28T05:31:43.589Z,66.60
2022-09-28T05:34:41.503Z,66.57
2022-09-28T05:37:13.581Z,66.66
2022-09-28T05:39:41.417Z,66.73
2022-09-28T05:42:09.562Z,66.69
2022-09-28T05:44:38.568Z,66.73
2022-09-28T05:47:06.488Z,66.90
2022-09-28T05:49:34.687Z,66.94
2022-09-28T05:52:03.096Z,66.90
2022-09-28T05:54:31.977Z,66.82
2022-09-28T05:56:59.890Z,66.71
2022-09-28T05:59:27.889Z,66.72
2022-09-28T06:01:55.778Z,66.52
2022-09-28T06:04:23.747Z,66.39
2022-09-28T06:06:52.530Z,66.37
2022-09-28T06:09:25.185Z,66.26
2022-09-28T06:12:16.835Z,66.30
2022-09-28T06:14:49.333Z,66.40
2022-09-28T06:17:17.264Z,66.44
2022-09-28T06:19:52.474Z,66.47
2022-09-28T06:22:39.695Z,66.39
2022-09-28T06:25:11.501Z,66.38
2022-09-28T06:27:42.783Z,66.40
2022-09-28T06:30:11.495Z,66.30
2022-09-28T06:32:42.292Z,66.34
2022-09-28T06:35:10.591Z,66.23
2022-09-28T06:37:45.702Z,66.17
2022-09-28T06:40:17.019Z,66.31
2022-09-28T06:42:45.413Z,66.36
2022-09-28T06:45:27.955Z,66.42
2022-09-28T06:48:25.109Z,66.43
2022-09-28T06:50:54.016Z,66.40
2022-09-28T06:53:29.847Z,66.35
2022-09-28T06:56:02.693Z,66.19
2022-09-28T06:58:32.510Z,66.15
2022-09-28T07:01:01.328Z,65.79
2022-09-28T07:03:34.030Z,65.62
2022-09-28T07:06:21.281Z,65.75
2022-09-28T07:09:32.337Z,65.76
2022-09-28T07:12:22.716Z,65.48
2022-09-28T07:14:57.459Z,65.21
2022-09-28T07:17:27.599Z,65.46
2022-09-28T07:20:03.515Z,65.35
2022-09-28T07:22:48.770Z,65.27
2022-09-28T07:25:26.066Z,65.27
2022-09-28T07:28:12.479Z,65.21
2022-09-28T07:31:09.812Z,64.63
2022-09-28T07:33:54.099Z,64.48
2022-09-28T07:36:44.602Z,64.02
2022-09-28T07:39:12.541Z,64.18
2022-09-28T07:41:41.538Z,64.24
2022-09-28T07:44:09.336Z,64.22
2022-09-28T07:46:38.269Z,64.32
2022-09-28T07:49:12.987Z,64.08
2022-09-28T07:52:01.662Z,64.03
2022-09-28T07:54:31.326Z,63.58
2022-09-28T07:57:01.809Z,63.88
2022-09-28T07:59:38.578Z,63.98
2022-09-28T08:02:25.933Z,63.93
2022-09-28T08:04:54.537Z,63.77
2022-09-28T08:07:24.170Z,63.85
2022-09-28T08:09:59.632Z,63.45
2022-09-28T08:12:27.847Z,63.36
2022-09-28T08:15:14.293Z,63.60
2022-09-28T08:17:57.992Z,63.66
2022-09-28T08:20:51.601Z,63.68
2022-09-28T08:23:20.623Z,63.42
2022-09-28T08:25:49.570Z,63.52
2022-09-28T08:28:18.174Z,63.13
2022-09-28T08:30:48.612Z,62.96
2022-09-28T08:33:35.663Z,62.73
2022-09-28T08:36:22.718Z,62.82
2022-09-28T08:39:02.464Z,62.67
2022-09-28T08:41:48.730Z,62.46
2022-09-28T08:44:51.956Z,62.52
2022-09-28T08:48:27.340Z,62.48
2022-09-28T08:51:20.075Z,62.25
2022-09-28T08:54:20.341Z,61.79
2022-09-28T08:57:15.684Z,62.00
2022-09-28T08:59:53.792Z,62.03
2022-09-28T09:02:36.410Z,61.74
2022-09-28T09:05:23.707Z,61.79
2022-09-28T09:08:35.213Z,61.64
2022-09-28T09:11:25.468Z,61.58
2022-09-28T09:14:24.811Z,61.40
2022-09-28T09:17:00.451Z,61.45
2022-09-28T09:19:56.194Z,61.39
2022-09-28T09:23:01.429Z,61.26
2022-09-28T09:25:55.205Z,61.17
2022-09-28T09:28:42.242Z,61.09
2022-09-28T09:32:04.156Z,60.97
2022-09-28T09:35:30.607Z,61.00
2022-09-28T09:38:46.530Z,60.91
2022-09-28T09:41:54.825Z,60.95
2022-09-28T09:45:02.871Z,60.92
2022-09-28T09:47:56.656Z,60.65
2022-09-28T09:50:40.131Z,60.84
2022-09-28T09:53:29.764Z,60.78
2022-09-28T09:56:15.364Z,60.77
2022-09-28T09:59:13.969Z,60.70
2022-09-28T10:02:29.500Z,60.61
2022-09-28T10:05:22.393Z,60.93
2022-09-28T10:07:56.494Z,61.22
2022-09-28T10:10:29.506Z,61.22
2022-09-28T10:13:10.370Z,61.31
2022-09-28T10:15:41.495Z,61.46
2022-09-28T10:18:30.204Z,61.73
2022-09-28T10:21:23.239Z,61.87
2022-09-28T10:24:33.882Z,61.85
2022-09-28T10:27:08.726Z,62.04
2022-09-28T10:29:55.947Z,62.33
2022-09-28T10:32:26.406Z,62.33
2022-09-28T10:35:32.708Z,62.48
2022-09-28T10:38:15.977Z,62.41
2022-09-28T10:41:01.329Z,62.43
2022-09-28T10:44:06.662Z,62.48
2022-09-28T10:46:42.468Z,62.53
2022-09-28T10:49:18.365Z,62.59
2022-09-28T10:51:55.006Z,62.63
2022-09-28T10:54:28.431Z,62.51
2022-09-28T10:57:00.095Z,62.75
2022-09-28T10:59:48.232Z,62.74
2022-09-28T11:02:36.001Z,62.77
2022-09-28T11:05:07.992Z,62.62
2022-09-28T11:07:49.505Z,62.27
2022-09-28T11:10:26.197Z,62.33
2022-09-28T11:12:56.946Z,62.33
2022-09-28T11:15:29.959Z,62.30
2022-09-28T11:18:19.094Z,62.41
2022-09-28T11:20:47.356Z,62.67
2022-09-28T11:23:22.788Z,62.56
2022-09-28T11:26:09.547Z,62.62
2022-09-28T11:28:39.186Z,62.74
2022-09-28T11:31:12.577Z,62.81
2022-09-28T11:34:36.498Z,63.03
2022-09-28T11:37:44.568Z,62.84
2022-09-28T11:40:19.379Z,62.77
2022-09-28T11:42:55.958Z,62.79
2022-09-28T11:46:02.966Z,62.89
2022-09-28T11:48:46.237Z,62.88
2022-09-28T11:51:29.045Z,62.88
2022-09-28T11:54:14.466Z,62.98
2022-09-28T11:56:47.878Z,62.86
2022-09-28T11:59:55.634Z,62.75
2022-09-28T12:02:31.100Z,62.83
2022-09-28T12:05:17.108Z,62.93
2022-09-28T12:07:54.529Z,62.96
2022-09-28T12:11:12.582Z,62.88
2022-09-28T12:14:03.957Z,62.74
2022-09-28T12:17:04.267Z,62.93
2022-09-28T12:20:07.403Z,63.12
2022-09-28T12:22:59.544Z,62.91
2022-09-28T12:25:34.075Z,63.11
2022-09-28T12:28:07.730Z,63.14
2022-09-28T12:30:40.649Z,63.12
2022-09-28T12:33:13.449Z,62.75
2022-09-28T12:36:06.245Z,62.73
2022-09-28T12:39:30.669Z,62.79
2022-09-28T12:42:21.075Z,62.76
2022-09-28T12:45:11.361Z,62.70
2022-09-28T12:48:01.407Z,62.68
2022-09-28T12:50:41.597Z,63.02
2022-09-28T12:53:32.470Z,62.84
2022-09-28T12:56:11.763Z,62.86
2022-09-28T12:58:49.412Z,63.00
2022-09-28T13:01:52.005Z,63.06
2022-09-28T13:04:32.124Z,62.74
2022-09-28T13:07:19.505Z,62.70
2022-09-28T13:10:01.637Z,62.89
2022-09-28T13:12:46.978Z,63.08
2022-09-28T13:15:29.563Z,63.24
2022-09-28T13:18:15.680Z,63.22
2022-09-28T13:21:08.910Z,63.30
2022-09-28T13:23:43.319Z,63.27
2022-09-28T13:26:32.392Z,63.16
2022-09-28T13:29:16.246Z,63.12
2022-09-28T13:31:59.797Z,62.91
2022-09-28T13:34:35.381Z,62.84
2022-09-28T13:37:24.484Z,62.85
2022-09-28T13:39:59.921Z,62.81
2022-09-28T13:42:59.099Z,62.92
2022-09-28T13:45:40.566Z,63.13
2022-09-28T13:48:22.777Z,63.18
2022-09-28T13:50:53.633Z,62.95
2022-09-28T13:53:44.278Z,62.84
2022-09-28T13:56:22.602Z,63.02
2022-09-28T13:58:58.685Z,63.00
2022-09-28T14:01:36.540Z,62.96
2022-09-28T14:04:23.593Z,62.83
2022-09-28T14:07:11.286Z,62.92
2022-09-28T14:09:49.829Z,62.91
2022-09-28T14:12:35.149Z,62.91
2022-09-28T14:15:27.529Z,62.99
2022-09-28T14:18:26.394Z,62.84
2022-09-28T14:21:13.999Z,62.77
2022-09-28T14:24:27.556Z,62.01
2022-09-28T14:27:17.366Z,61.75
2022-09-28T14:29:45.851Z,61.46
2022-09-28T14:32:20.330Z,61.86
2022-09-28T14:34:57.045Z,63.93
2022-09-28T14:37:49.417Z,62.58
2022-09-28T14:40:43.698Z,60.06
2022-09-28T14:43:36.523Z,56.25
2022-09-28T14:46:13.250Z,54.77
2022-09-28T14:49:03.899Z,53.35
2022-09-28T14:51:33.305Z,51.63
2022-09-28T14:54:05.680Z,50.84
2022-09-28T14:56:40.399Z,51.03
2022-09-28T14:59:17.448Z,49.46
2022-09-28T15:01:51.231Z,48.98
2022-09-28T15:04:20.807Z,49.83
2022-09-28T15:06:52.046Z,49.77
2022-09-28T15:09:37.148Z,49.17
2022-09-28T15:12:16.051Z,48.83
2022-09-28T15:14:53.884Z,48.33
2022-09-28T15:17:30.582Z,48.12
2022-09-28T15:20:26.627Z,47.36
2022-09-28T15:22:59.286Z,47.59
2022-09-28T15:25:29.759Z,47.00
2022-09-28T15:28:13.362Z,46.34
2022-09-28T15:30:41.248Z,45.94
2022-09-28T15:33:43.051Z,46.99
2022-09-28T15:36:24.431Z,47.05
2022-09-28T15:39:06.653Z,47.67
2022-09-28T15:41:34.888Z,48.57
2022-09-28T15:44:08.520Z,48.75
2022-09-28T15:46:39.149Z,48.05
2022-09-28T15:49:20.159Z,48.00
2022-09-28T15:51:53.394Z,48.40
2022-09-28T15:54:42.902Z,48.17
2022-09-28T15:57:28.783Z,48.27
2022-09-28T16:00:00.903Z,48.40
2022-09-28T16:02:29.881Z,48.52
2022-09-28T16:05:01.798Z,48.75
2022-09-28T16:07:42.527Z,49.07
2022-09-28T16:10:25.546Z,48.77
2022-09-28T16:12:59.244Z,49.04
2022-09-28T16:15:35.464Z,49.59
2022-09-28T16:18:20.321Z,49.60
2022-09-28T16:20:52.119Z,49.86
2022-09-28T16:23:34.167Z,50.01
2022-09-28T16:26:07.072Z,50.21
2022-09-28T16:28:37.600Z,50.22
2022-09-28T16:31:15.562Z,50.57
2022-09-28T16:33:46.336Z,50.73
2022-09-28T16:36:19.944Z,50.69
2022-09-28T16:38:49.191Z,50.76
2022-09-28T16:41:21.677Z,51.02
2022-09-28T16:43:56.569Z,51.15
2022-09-28T16:46:32.272Z,51.37
2022-09-28T16:49:03.675Z,51.68
2022-09-28T16:51:33.112Z,51.67
2022-09-28T16:54:34.164Z,51.79
2022-09-28T16:57:04.932Z,52.08
2022-09-28T16:59:33.331Z,52.07
2022-09-28T17:02:01.370Z,52.14
2022-09-28T17:04:29.297Z,52.24
2022-09-28T17:06:58.536Z,52.35
2022-09-28T17:09:26.455Z,52.35
2022-09-28T17:11:56.391Z,52.38
2022-09-28T17:14:24.589Z,52.61
2022-09-28T17:17:08.186Z,52.62
2022-09-28T17:19:37.762Z,52.83
2022-09-28T17:22:08.125Z,52.97
2022-09-28T17:24:36.457Z,52.60
2022-09-28T17:27:05.539Z,52.48
2022-09-28T17:29:33.422Z,52.29
2022-09-28T17:32:02.872Z,52.20
2022-09-28T17:34:30.695Z,52.22
2022-09-28T17:36:59.092Z,52.30
2022-09-28T17:39:27.426Z,52.31
2022-09-28T17:41:55.287Z,52.51
2022-09-28T17:44:23.367Z,52.53
2022-09-28T17:46:54.117Z,52.58
2022-09-28T17:49:22.073Z,52.52
2022-09-28T17:51:50.548Z,52.50
2022-09-28T17:54:20.942Z,52.53
2022-09-28T17:56:49.348Z,52.63
2022-09-28T17:59:19.192Z,52.65
2022-09-28T18:01:48.594Z,52.92
2022-09-28T18:04:39.766Z,52.88
2022-09-28T18:07:05.680Z,53.14
2022-09-28T18:09:33.522Z,53.12
2022-09-28T18:12:04.748Z,53.15
2022-09-28T18:14:32.990Z,53.44
2022-09-28T18:17:01.035Z,53.36
2022-09-28T18:19:32.158Z,53.41
2022-09-28T18:22:01.858Z,53.57
2022-09-28T18:24:32.602Z,53.55
2022-09-28T18:27:00.694Z,53.70
2022-09-28T18:29:32.913Z,53.83
2022-09-28T18:32:02.919Z,53.83
2022-09-28T18:34:31.831Z,54.07
2022-09-28T18:37:00.415Z,54.09
2022-09-28T18:39:29.048Z,54.05
2022-09-28T18:41:57.206Z,54.35
2022-09-28T18:44:25.606Z,54.29
2022-09-28T18:46:54.600Z,54.30
2022-09-28T18:49:23.335Z,54.28
2022-09-28T18:51:52.151Z,54.36
2022-09-28T18:54:20.403Z,54.36
2022-09-28T18:56:48.471Z,54.53
2022-09-28T18:59:16.855Z,54.49
2022-09-28T19:01:45.271Z,54.63
2022-09-28T19:04:15.202Z,54.88
2022-09-28T19:06:45.192Z,54.75
2022-09-28T19:09:13.536Z,54.89
2022-09-28T19:11:41.548Z,54.89
2022-09-28T19:14:11.717Z,54.88
2022-09-28T19:16:39.728Z,54.95
2022-09-28T19:19:11.095Z,54.90
2022-09-28T19:21:43.341Z,54.97
2022-09-28T19:24:16.178Z,54.96
2022-09-28T19:26:46.850Z,55.04
2022-09-28T19:29:15.651Z,55.05
2022-09-28T19:31:43.627Z,55.25
2022-09-28T19:34:14.295Z,55.34
2022-09-28T19:36:43.483Z,55.38
2022-09-28T19:39:15.383Z,55.43
2022-09-28T19:41:46.013Z,55.57
2022-09-28T19:44:21.302Z,55.49
2022-09-28T19:46:49.144Z,55.49
2022-09-28T19:49:21.427Z,55.53
2022-09-28T19:52:11.532Z,55.62
2022-09-28T19:54:39.818Z,55.74
2022-09-28T19:57:08.900Z,55.71
2022-09-28T19:59:37.407Z,55.69
2022-09-28T20:02:07.620Z,55.73
2022-09-28T20:04:35.838Z,55.77
2022-09-28T20:07:05.337Z,55.86
2022-09-28T20:09:33.256Z,55.81
2022-09-28T20:12:01.326Z,56.01
2022-09-28T20:14:33.987Z,55.93
2022-09-28T20:17:04.341Z,56.09
2022-09-28T20:19:33.689Z,56.11
2022-09-28T20:22:03.331Z,56.13
2022-09-28T20:24:32.712Z,56.30
2022-09-28T20:27:01.566Z,56.37
2022-09-28T20:29:32.235Z,56.38
2022-09-28T20:32:01.284Z,56.30
2022-09-28T20:34:29.066Z,56.33
2022-09-28T20:36:56.850Z,56.49
2022-09-28T20:39:24.800Z,56.48
2022-09-28T20:41:52.753Z,56.40
2022-09-28T20:44:20.728Z,56.61
2022-09-28T20:46:52.470Z,56.73
2022-09-28T20:49:20.386Z,56.79
2022-09-28T20:51:48.248Z,56.78
2022-09-28T20:54:15.931Z,56.94
2022-09-28T20:56:43.860Z,56.80
2022-09-28T20:59:12.158Z,56.82
2022-09-28T21:01:40.885Z,56.77
2022-09-28T21:04:10.332Z,56.77
2022-09-28T21:06:40.561Z,56.80
2022-09-28T21:09:10.709Z,56.80
2022-09-28T21:11:39.063Z,56.98
2022-09-28T21:14:08.274Z,56.91
2022-09-28T21:16:38.174Z,56.95
2022-09-28T21:19:06.063Z,56.93
2022-09-28T21:21:33.883Z,56.98
2022-09-28T21:24:02.466Z,57.08
2022-09-28T21:26:32.945Z,57.18
2022-09-28T21:29:04.464Z,57.30
2022-09-28T21:31:48.746Z,57.31
2022-09-28T21:34:19.494Z,57.29
2022-09-28T21:36:51.450Z,57.40
2022-09-28T21:39:20.358Z,57.46
2022-09-28T21:41:49.472Z,57.41
2022-09-28T21:44:19.299Z,57.35
2022-09-28T21:46:47.743Z,57.35
2022-09-28T21:49:15.829Z,57.41
2022-09-28T21:51:43.683Z,57.41
2022-09-28T21:54:12.151Z,57.35
2022-09-28T21:56:40.095Z,57.48
2022-09-28T21:59:07.899Z,57.58
2022-09-28T22:01:36.111Z,57.64
2022-09-28T22:04:03.933Z,57.84
2022-09-28T22:06:32.085Z,57.76
2022-09-28T22:09:00.205Z,57.87
2022-09-28T22:11:28.936Z,58.03
2022-09-28T22:14:00.138Z,58.00
2022-09-28T22:16:29.593Z,58.20
2022-09-28T22:18:59.216Z,58.21
2022-09-28T22:21:30.267Z,58.56
2022-09-28T22:24:02.534Z,58.53
2022-09-28T22:26:33.791Z,58.35
2022-09-28T22:29:07.765Z,58.48
2022-09-28T22:31:40.650Z,58.56
2022-09-28T22:34:10.058Z,58.44
2022-09-28T22:36:37.859Z,58.46
2022-09-28T22:39:06.536Z,58.51
2022-09-28T22:41:35.615Z,58.49
2022-09-28T22:44:03.477Z,58.56
2022-09-28T22:46:32.661Z,58.62
2022-09-28T22:49:01.285Z,58.61
2022-09-28T22:51:30.175Z,58.78
2022-09-28T22:53:58.737Z,58.85
2022-09-28T22:56:27.095Z,58.94
2022-09-28T22:58:56.823Z,58.96
2022-09-28T23:01:28.144Z,58.99
2022-09-28T23:03:57.785Z,58.97
2022-09-28T23:06:27.910Z,59.13
2022-09-28T23:08:55.836Z,59.11
2022-09-28T23:11:23.692Z,59.23
2022-09-28T23:13:53.883Z,59.16
2022-09-28T23:16:23.735Z,59.29
2022-09-28T23:18:52.917Z,59.53
2022-09-28T23:21:23.619Z,59.48
2022-09-28T23:23:54.892Z,59.56
2022-09-28T23:26:24.399Z,59.54
2022-09-28T23:28:53.903Z,59.49
2022-09-28T23:31:24.620Z,59.63
2022-09-28T23:33:57.556Z,59.54
2022-09-28T23:36:25.762Z,59.64
2022-09-28T23:38:54.083Z,59.64
2022-09-28T23:41:21.962Z,59.69
2022-09-28T23:43:49.899Z,59.81
2022-09-28T23:46:20.902Z,59.68
2022-09-28T23:48:49.960Z,59.70
2022-09-28T23:51:17.852Z,59.65
2022-09-28T23:53:46.609Z,59.68
2022-09-28T23:56:15.054Z,59.90
2022-09-28T23:58:42.966Z,59.98
